Time;durP1;ratioP1;P1;durP2;ratioP2;P2;SDS_P1;SDS_P2;PMS_P1;PMS_P2;Temp;Humidity;BMP_temperature;BMP_pressure;BME280_temperature;BME280_humidity;BME280_pressure;Samples;Min_cycle;Max_cycle;Signal;HPM_P1;HPM_P2
2023/03/25 00:01:51;;;;;;;1.03;0.77;;;9.90;99.90;;;;;;5033654;28;20227;-85
2023/03/25 00:04:18;;;;;;;1.90;0.90;;;9.80;99.90;;;;;;5036729;28;20200;-86
2023/03/25 00:06:45;;;;;;;2.10;0.90;;;9.80;99.90;;;;;;5029341;28;20303;-84
2023/03/25 00:09:11;;;;;;;1.70;0.77;;;9.90;99.90;;;;;;5037102;28;20203;-87
2023/03/25 00:11:40;;;;;;;1.30;1.00;;;9.90;99.90;;;;;;5038743;28;20208;-86
2023/03/25 00:14:07;;;;;;;1.73;0.90;;;10.00;99.90;;;;;;5029829;28;20211;-86
2023/03/25 00:16:33;;;;;;;2.20;0.87;;;10.00;99.90;;;;;;5032961;28;20227;-86
2023/03/25 00:19:01;;;;;;;2.83;1.30;;;9.90;99.90;;;;;;5032945;28;20206;-87
2023/03/25 00:21:28;;;;;;;1.03;0.90;;;9.90;99.90;;;;;;5030265;28;20206;-85
2023/03/25 00:23:55;;;;;;;1.93;0.87;;;9.80;99.90;;;;;;5037359;28;20310;-86
2023/03/25 00:26:22;;;;;;;3.90;1.10;;;9.80;99.90;;;;;;5029277;28;20208;-86
2023/03/25 00:28:50;;;;;;;1.73;1.00;;;9.90;99.90;;;;;;5027852;28;20227;-86
2023/03/25 00:31:17;;;;;;;1.87;0.83;;;9.90;99.90;;;;;;5036049;28;20207;-86
2023/03/25 00:33:43;;;;;;;3.70;0.70;;;9.80;99.90;;;;;;5032339;28;20318;-86
2023/03/25 00:36:13;;;;;;;2.23;0.67;;;9.80;99.90;;;;;;5017104;28;20235;-86
2023/03/25 00:38:41;;;;;;;1.23;0.73;;;9.70;99.90;;;;;;5017921;28;20283;-86
2023/03/25 00:41:10;;;;;;;4.17;1.00;;;9.60;99.90;;;;;;5020424;28;20299;-86
2023/03/25 00:43:37;;;;;;;0.77;0.57;;;9.70;99.90;;;;;;5020705;28;20238;-85
2023/03/25 00:46:06;;;;;;;0.93;0.83;;;9.70;99.90;;;;;;5021089;28;20207;-85
2023/03/25 00:48:32;;;;;;;4.50;1.53;;;9.60;99.90;;;;;;5022331;28;20208;-85
2023/03/25 00:51:05;;;;;;;2.30;1.30;;;9.60;99.90;;;;;;5020841;28;20200;-86
2023/03/25 00:53:33;;;;;;;2.00;1.00;;;9.40;99.90;;;;;;5021935;28;20224;-86
2023/03/25 00:56:00;;;;;;;2.40;1.00;;;9.30;99.90;;;;;;5018718;28;20554;-85
2023/03/25 00:58:26;;;;;;;1.80;1.00;;;9.40;99.90;;;;;;5017827;28;20207;-86
2023/03/25 01:00:55;;;;;;;1.17;0.80;;;9.30;99.90;;;;;;5019157;28;20207;-86
2023/03/25 01:03:23;;;;;;;1.43;0.80;;;9.30;99.90;;;;;;5018917;28;20238;-86
2023/03/25 01:05:53;;;;;;;2.93;0.80;;;9.30;99.90;;;;;;5023597;28;20207;-86
2023/03/25 01:08:24;;;;;;;1.90;0.80;;;9.40;99.90;;;;;;5011551;28;20583;-86
2023/03/25 01:10:51;;;;;;;3.67;0.97;;;9.30;99.90;;;;;;5022247;28;20212;-86
2023/03/25 01:13:18;;;;;;;2.13;0.90;;;9.30;99.90;;;;;;5013326;28;20220;-86
2023/03/25 01:15:45;;;;;;;1.33;0.73;;;9.30;99.90;;;;;;5021127;28;20208;-86
2023/03/25 01:18:12;;;;;;;1.63;0.83;;;9.30;99.90;;;;;;5018681;28;20208;-86
2023/03/25 01:20:41;;;;;;;1.03;0.87;;;9.30;99.90;;;;;;5023332;28;20203;-85
2023/03/25 01:23:08;;;;;;;1.57;0.90;;;9.30;99.90;;;;;;5018709;28;20718;-86
2023/03/25 01:25:35;;;;;;;1.27;0.90;;;9.40;99.90;;;;;;5017104;28;20212;-85
2023/03/25 01:28:02;;;;;;;2.13;0.80;;;9.50;99.90;;;;;;5015032;28;20207;-85
2023/03/25 01:30:29;;;;;;;0.83;0.57;;;9.60;99.90;;;;;;5020298;28;20204;-86
2023/03/25 01:32:56;;;;;;;1.13;0.90;;;9.70;99.90;;;;;;5029200;28;20309;-85
2023/03/25 01:35:23;;;;;;;0.67;0.67;;;9.70;99.90;;;;;;5018418;28;20553;-86
2023/03/25 01:37:53;;;;;;;1.60;0.73;;;9.80;99.90;;;;;;5015704;28;20214;-85
2023/03/25 01:40:22;;;;;;;2.33;0.80;;;9.80;99.90;;;;;;5013179;28;20676;-85
2023/03/25 01:42:49;;;;;;;0.47;0.47;;;9.90;99.90;;;;;;5018225;28;20226;-85
2023/03/25 01:45:25;;;;;;;3.10;0.70;;;9.90;99.90;;;;;;5017570;28;20270;-86
2023/03/25 01:47:59;;;;;;;4.17;0.80;;;9.90;99.90;;;;;;5018113;28;20204;-85
2023/03/25 01:50:27;;;;;;;3.70;0.90;;;9.80;99.90;;;;;;5023984;28;20205;-85
2023/03/25 01:52:58;;;;;;;1.67;0.83;;;9.90;99.90;;;;;;5018808;28;20231;-85
2023/03/25 01:55:26;;;;;;;2.10;0.97;;;10.00;99.90;;;;;;5021287;28;20206;-85
2023/03/25 01:57:56;;;;;;;3.03;1.30;;;10.00;99.90;;;;;;5015963;28;20294;-86
2023/03/25 02:00:25;;;;;;;1.63;1.10;;;10.10;99.90;;;;;;5028017;28;20666;-85
2023/03/25 02:02:57;;;;;;;1.83;1.60;;;10.00;99.90;;;;;;5025079;28;20695;-85
2023/03/25 02:05:30;;;;;;;3.27;1.17;;;10.00;99.90;;;;;;5019146;28;20242;-83
2023/03/25 02:07:59;;;;;;;4.40;1.20;;;9.90;99.90;;;;;;5025350;28;20857;-86
2023/03/25 02:10:26;;;;;;;2.20;1.27;;;9.90;99.90;;;;;;5020092;28;20196;-84
2023/03/25 02:12:52;;;;;;;3.37;1.30;;;9.80;99.90;;;;;;5028700;28;20223;-84
2023/03/25 02:15:19;;;;;;;2.17;0.97;;;9.80;99.90;;;;;;5027730;28;20606;-84
2023/03/25 02:18:02;;;;;;;2.50;1.13;;;9.70;99.90;;;;;;5031522;28;20293;-83
2023/03/25 02:20:56;;;;;;;1.23;1.10;;;9.50;99.90;;;;;;5031932;28;20208;-83
2023/03/25 02:23:57;;;;;;;3.30;1.33;;;9.50;99.90;;;;;;5037912;28;20251;-84
2023/03/25 02:27:13;;;;;;;1.20;1.00;;;9.30;99.90;;;;;;5028631;28;20239;-84
2023/03/25 02:30:05;;;;;;;2.80;1.10;;;9.20;99.90;;;;;;5009459;28;20215;-83
2023/03/25 02:32:48;;;;;;;3.73;1.67;;;9.20;99.90;;;;;;5029128;28;20251;-84
2023/03/25 02:35:27;;;;;;;2.83;1.67;;;9.20;99.90;;;;;;5032861;28;20259;-83
2023/03/25 02:38:16;;;;;;;2.20;1.33;;;9.30;99.90;;;;;;5036273;28;20207;-84
2023/03/25 02:40:46;;;;;;;2.50;1.00;;;9.30;99.90;;;;;;5030709;28;20259;-84
2023/03/25 02:43:19;;;;;;;1.43;1.20;;;9.30;99.90;;;;;;5034934;28;20679;-83
2023/03/25 02:45:50;;;;;;;1.03;0.90;;;9.20;99.90;;;;;;5035005;28;20211;-84
2023/03/25 02:48:22;;;;;;;1.80;1.20;;;9.30;99.90;;;;;;5029850;28;20219;-83
2023/03/25 02:50:53;;;;;;;1.37;1.27;;;9.40;99.90;;;;;;5036957;28;20603;-84
2023/03/25 02:53:26;;;;;;;1.20;1.10;;;9.30;99.90;;;;;;5037697;28;20754;-84
2023/03/25 02:55:58;;;;;;;2.03;1.30;;;9.30;99.90;;;;;;5038002;28;20310;-84
2023/03/25 02:58:26;;;;;;;4.87;1.27;;;9.30;99.90;;;;;;5027852;28;20211;-83
2023/03/25 03:00:57;;;;;;;2.40;1.70;;;9.40;99.90;;;;;;5034070;28;20582;-83
2023/03/25 03:03:25;;;;;;;2.03;1.27;;;9.30;99.90;;;;;;5033722;28;20239;-83
2023/03/25 03:05:56;;;;;;;4.37;1.60;;;9.30;99.90;;;;;;5034486;28;20290;-83
2023/03/25 03:08:37;;;;;;;1.47;1.33;;;9.30;99.90;;;;;;5033148;28;20204;-84
2023/03/25 03:11:12;;;;;;;2.70;1.43;;;9.30;99.90;;;;;;5030162;28;20203;-83
2023/03/25 03:13:59;;;;;;;2.87;1.10;;;9.20;99.90;;;;;;5033615;28;20909;-83
2023/03/25 03:16:33;;;;;;;3.40;1.43;;;9.30;99.90;;;;;;5051303;28;20211;-83
2023/03/25 03:19:08;;;;;;;2.43;1.50;;;9.30;99.90;;;;;;5051290;28;20203;-83
2023/03/25 03:21:40;;;;;;;2.07;1.17;;;9.30;99.90;;;;;;5054843;28;20202;-83
2023/03/25 03:24:15;;;;;;;1.53;1.30;;;9.30;99.90;;;;;;5043178;28;20258;-84
2023/03/25 03:26:47;;;;;;;3.17;1.83;;;9.20;99.90;;;;;;5043832;28;20207;-84
2023/03/25 03:29:20;;;;;;;2.77;1.80;;;9.40;99.90;;;;;;5046520;28;20290;-84
2023/03/25 03:31:53;;;;;;;5.60;1.90;;;9.20;99.90;;;;;;5050214;28;20223;-84
2023/03/25 03:34:25;;;;;;;2.30;1.57;;;9.20;99.90;;;;;;5052418;28;20259;-84
2023/03/25 03:36:55;;;;;;;2.10;1.63;;;9.10;99.90;;;;;;5047230;28;20214;-85
2023/03/25 03:39:28;;;;;;;4.57;1.77;;;9.00;99.90;;;;;;5049880;28;20196;-84
2023/03/25 03:41:58;;;;;;;4.57;1.90;;;9.00;99.90;;;;;;5054564;28;20283;-85
2023/03/25 03:44:30;;;;;;;3.47;1.53;;;9.00;99.90;;;;;;5046713;28;20220;-84
2023/03/25 03:47:00;;;;;;;1.60;1.50;;;8.90;99.90;;;;;;5045512;28;20316;-82
2023/03/25 03:49:34;;;;;;;4.43;2.10;;;8.90;99.90;;;;;;5038687;28;20267;-82
2023/03/25 03:52:08;;;;;;;3.03;1.97;;;8.90;99.90;;;;;;5046368;28;20219;-85
2023/03/25 03:54:42;;;;;;;3.33;1.53;;;8.90;99.90;;;;;;5057219;28;20200;-85
2023/03/25 03:57:14;;;;;;;6.57;1.80;;;9.00;99.90;;;;;;5042156;28;20195;-82
2023/03/25 03:59:50;;;;;;;1.80;1.30;;;9.10;99.90;;;;;;5050915;28;20199;-83
2023/03/25 04:02:25;;;;;;;1.50;1.20;;;9.20;99.90;;;;;;5049195;28;20283;-82
2023/03/25 04:04:53;;;;;;;5.57;1.97;;;9.20;99.90;;;;;;5043422;28;20281;-82
2023/03/25 04:07:26;;;;;;;7.70;3.13;;;9.20;99.90;;;;;;5054453;28;20212;-82
2023/03/25 04:10:01;;;;;;;1.60;1.27;;;9.20;99.90;;;;;;5051456;28;20657;-82
2023/03/25 04:12:31;;;;;;;3.67;1.40;;;9.20;99.90;;;;;;5051165;28;20215;-83
2023/03/25 04:15:01;;;;;;;4.07;2.07;;;9.20;99.90;;;;;;5041912;28;20291;-82
2023/03/25 04:17:31;;;;;;;3.40;1.37;;;9.20;99.90;;;;;;5060128;28;20195;-83
2023/03/25 04:19:58;;;;;;;3.57;1.53;;;9.20;99.90;;;;;;5049254;28;20222;-82
2023/03/25 04:22:25;;;;;;;5.40;1.83;;;9.20;99.90;;;;;;5059492;28;20222;-83
2023/03/25 04:24:53;;;;;;;5.03;1.50;;;9.20;99.90;;;;;;5054932;28;20223;-82
2023/03/25 04:27:22;;;;;;;7.53;1.93;;;9.30;99.90;;;;;;5056179;28;20202;-82
2023/03/25 04:29:50;;;;;;;3.27;1.80;;;9.40;99.90;;;;;;5053885;28;20208;-84
2023/03/25 04:32:18;;;;;;;3.83;1.80;;;9.30;99.90;;;;;;5053045;28;20290;-83
2023/03/25 04:34:45;;;;;;;2.50;1.60;;;9.20;99.90;;;;;;5051333;28;20205;-83
2023/03/25 04:37:12;;;;;;;2.70;1.90;;;9.10;99.90;;;;;;5045995;28;20214;-82
2023/03/25 04:39:39;;;;;;;2.80;1.50;;;8.80;99.90;;;;;;5048326;28;20622;-82
2023/03/25 04:42:07;;;;;;;4.13;1.77;;;8.70;99.90;;;;;;5051484;28;20235;-83
2023/03/25 04:44:37;;;;;;;2.40;1.27;;;8.60;99.90;;;;;;5048166;28;20226;-83
2023/03/25 04:47:07;;;;;;;3.77;1.43;;;8.60;99.90;;;;;;5044384;28;20253;-83
2023/03/25 04:49:33;;;;;;;2.60;1.30;;;8.50;99.90;;;;;;5051530;28;20204;-83
2023/03/25 04:52:03;;;;;;;3.03;1.40;;;8.40;99.90;;;;;;5053950;28;20218;-82
2023/03/25 04:54:30;;;;;;;2.33;1.03;;;8.30;99.90;;;;;;5048612;28;20196;-82
2023/03/25 04:56:57;;;;;;;1.70;1.23;;;8.40;99.90;;;;;;5051643;28;20304;-83
2023/03/25 04:59:25;;;;;;;1.33;1.00;;;8.40;99.90;;;;;;5049650;28;20207;-83
2023/03/25 05:01:54;;;;;;;3.20;1.40;;;8.40;99.90;;;;;;5051007;28;20232;-82
2023/03/25 05:04:23;;;;;;;1.37;1.10;;;8.40;99.90;;;;;;5046987;28;20220;-82
2023/03/25 05:06:51;;;;;;;2.57;1.63;;;8.20;99.90;;;;;;5047247;28;20918;-82
2023/03/25 05:09:23;;;;;;;6.43;3.87;;;8.10;99.90;;;;;;5039863;28;20580;-82
2023/03/25 05:11:51;;;;;;;3.50;2.27;;;8.10;99.90;;;;;;5045623;28;20223;-82
2023/03/25 05:14:19;;;;;;;2.80;1.63;;;8.10;99.90;;;;;;5050632;28;20191;-82
2023/03/25 05:16:47;;;;;;;1.70;1.60;;;8.10;99.90;;;;;;5052667;28;20213;-82
2023/03/25 05:19:17;;;;;;;4.40;1.90;;;8.10;99.90;;;;;;5046091;28;20199;-81
2023/03/25 05:21:44;;;;;;;2.80;2.07;;;8.10;99.90;;;;;;5030797;28;20200;-82
2023/03/25 05:24:13;;;;;;;3.73;1.87;;;8.10;99.90;;;;;;5036617;28;20227;-82
2023/03/25 05:26:41;;;;;;;3.70;2.20;;;8.10;99.90;;;;;;5032969;28;20208;-81
2023/03/25 05:29:12;;;;;;;5.37;2.20;;;8.00;99.90;;;;;;5038654;28;20207;-82
2023/03/25 05:31:39;;;;;;;3.50;2.13;;;8.00;99.90;;;;;;5029367;28;20211;-82
2023/03/25 05:34:07;;;;;;;2.23;1.83;;;7.90;99.90;;;;;;5028276;28;20200;-82
2023/03/25 05:36:36;;;;;;;3.20;2.20;;;7.80;99.90;;;;;;5030246;28;20200;-82
2023/03/25 05:39:04;;;;;;;3.60;2.13;;;7.80;99.90;;;;;;5026526;28;20286;-82
2023/03/25 05:41:37;;;;;;;5.03;2.20;;;7.90;99.90;;;;;;5032616;28;20291;-82
2023/03/25 05:44:05;;;;;;;4.67;2.23;;;8.00;99.90;;;;;;5038289;28;20254;-82
2023/03/25 05:46:32;;;;;;;8.73;2.67;;;7.90;99.90;;;;;;5042209;28;20231;-83
2023/03/25 05:49:00;;;;;;;2.70;1.97;;;8.20;99.90;;;;;;5041221;28;20223;-81
2023/03/25 05:51:28;;;;;;;3.73;2.40;;;8.30;99.90;;;;;;5045247;28;20212;-83
2023/03/25 05:53:56;;;;;;;4.90;2.37;;;8.50;99.90;;;;;;5044387;28;20199;-82
2023/03/25 05:56:24;;;;;;;3.73;2.30;;;8.60;99.90;;;;;;5037844;28;20206;-83
2023/03/25 05:58:53;;;;;;;4.50;2.30;;;8.80;99.90;;;;;;5039489;28;20231;-83
2023/03/25 06:01:21;;;;;;;3.83;2.60;;;8.90;99.90;;;;;;5046194;28;20567;-84
2023/03/25 06:03:48;;;;;;;8.97;4.30;;;8.90;99.90;;;;;;5033094;28;20224;-82
2023/03/25 06:06:17;;;;;;;4.50;2.50;;;9.00;99.90;;;;;;5036082;28;20199;-82
2023/03/25 06:08:45;;;;;;;4.63;2.77;;;9.00;99.90;;;;;;5043263;28;20708;-82
2023/03/25 06:11:13;;;;;;;4.17;2.13;;;9.20;99.90;;;;;;5043533;28;20199;-82
2023/03/25 06:13:48;;;;;;;5.13;2.93;;;9.30;99.90;;;;;;5031777;28;20254;-82
2023/03/25 06:16:17;;;;;;;3.30;2.53;;;9.60;99.90;;;;;;5044581;28;20203;-82
2023/03/25 06:18:44;;;;;;;7.33;2.60;;;9.40;99.90;;;;;;5040086;28;20246;-83
2023/03/25 06:21:11;;;;;;;4.10;2.43;;;9.30;99.90;;;;;;5041342;28;20208;-83
2023/03/25 06:23:38;;;;;;;5.03;2.57;;;9.30;99.90;;;;;;5046747;28;20220;-83
2023/03/25 06:26:05;;;;;;;2.80;2.10;;;9.20;99.90;;;;;;5034469;28;20204;-83
2023/03/25 06:28:33;;;;;;;4.70;2.00;;;9.30;99.90;;;;;;5042024;28;20235;-83
2023/03/25 06:31:07;;;;;;;4.13;2.80;;;9.20;99.90;;;;;;5046150;28;20203;-81
2023/03/25 06:33:35;;;;;;;3.63;2.20;;;9.30;99.90;;;;;;5048459;28;20289;-83
2023/03/25 06:36:01;;;;;;;3.90;2.30;;;9.30;99.90;;;;;;5042245;28;20203;-83
2023/03/25 06:38:28;;;;;;;4.57;2.40;;;9.40;99.90;;;;;;5045720;28;20207;-82
2023/03/25 06:40:56;;;;;;;4.17;2.20;;;9.40;99.90;;;;;;5045123;28;20214;-82
2023/03/25 06:43:23;;;;;;;2.73;2.20;;;9.40;99.90;;;;;;5037312;28;20219;-82
2023/03/25 06:45:52;;;;;;;4.80;2.23;;;9.50;99.90;;;;;;5036476;28;20718;-82
2023/03/25 06:48:18;;;;;;;3.57;2.20;;;9.50;99.90;;;;;;5044687;28;20565;-83
2023/03/25 06:50:45;;;;;;;5.97;2.50;;;9.50;99.90;;;;;;5037647;28;20227;-83
2023/03/25 06:53:12;;;;;;;2.90;2.10;;;9.50;99.90;;;;;;5046759;28;20298;-83
2023/03/25 06:55:40;;;;;;;3.70;2.03;;;9.60;99.90;;;;;;5038588;28;20215;-83
2023/03/25 06:58:07;;;;;;;5.43;2.00;;;9.60;99.90;;;;;;5041383;28;20197;-82
2023/03/25 07:00:34;;;;;;;5.70;2.10;;;9.60;99.90;;;;;;5047547;28;20696;-83
2023/03/25 07:03:02;;;;;;;3.83;2.40;;;9.60;99.90;;;;;;5043970;28;20223;-83
2023/03/25 07:05:29;;;;;;;5.17;2.00;;;9.60;99.90;;;;;;5041015;28;20228;-84
2023/03/25 07:07:55;;;;;;;2.37;1.80;;;9.60;99.90;;;;;;5038514;28;20203;-85
2023/03/25 07:10:22;;;;;;;3.27;1.90;;;9.60;99.90;;;;;;5038289;28;20262;-83
2023/03/25 07:12:49;;;;;;;3.83;1.90;;;9.60;99.90;;;;;;5043565;28;20267;-84
2023/03/25 07:15:16;;;;;;;4.00;1.63;;;9.60;99.90;;;;;;5037441;28;20196;-84
2023/03/25 07:17:43;;;;;;;4.30;2.20;;;9.70;99.90;;;;;;5030078;28;20230;-83
2023/03/25 07:20:12;;;;;;;6.97;2.40;;;9.60;99.90;;;;;;5053267;28;20282;-83
2023/03/25 07:22:39;;;;;;;2.70;2.10;;;9.60;99.90;;;;;;5034645;28;20224;-83
2023/03/25 07:25:06;;;;;;;4.33;2.40;;;9.60;99.90;;;;;;5042313;28;20224;-83
2023/03/25 07:27:33;;;;;;;4.17;2.00;;;9.70;99.90;;;;;;5040907;28;20211;-83
2023/03/25 07:30:00;;;;;;;2.83;2.10;;;9.80;99.90;;;;;;5043883;28;20187;-81
2023/03/25 07:32:27;;;;;;;5.73;1.77;;;9.90;99.90;;;;;;5046234;28;20330;-83
2023/03/25 07:34:54;;;;;;;2.93;1.90;;;10.00;99.90;;;;;;5038477;28;20286;-83
2023/03/25 07:37:22;;;;;;;3.03;1.80;;;10.00;99.90;;;;;;5046734;28;20283;-83
2023/03/25 07:39:49;;;;;;;7.40;2.27;;;9.70;99.90;;;;;;5043081;28;20206;-82
2023/03/25 07:42:16;;;;;;;3.23;1.90;;;9.70;99.90;;;;;;5036107;28;20235;-82
2023/03/25 07:44:42;;;;;;;2.37;1.93;;;9.70;99.90;;;;;;5052336;28;20274;-82
2023/03/25 07:47:09;;;;;;;3.57;2.10;;;9.70;99.90;;;;;;5043900;28;20211;-82
2023/03/25 07:49:39;;;;;;;3.47;1.90;;;9.70;99.90;;;;;;5052366;28;20207;-82
2023/03/25 07:52:06;;;;;;;2.80;2.10;;;9.80;99.90;;;;;;5041839;28;20283;-82
2023/03/25 07:54:34;;;;;;;3.87;1.90;;;10.00;99.90;;;;;;5062991;28;20192;-82
2023/03/25 07:57:01;;;;;;;4.10;2.13;;;10.10;99.90;;;;;;5045615;28;20634;-83
2023/03/25 07:59:28;;;;;;;3.00;1.90;;;10.20;99.90;;;;;;5052785;28;20267;-83
2023/03/25 08:01:55;;;;;;;5.70;2.43;;;10.30;99.90;;;;;;5037888;28;20291;-81
2023/03/25 08:04:22;;;;;;;2.60;1.80;;;10.10;99.90;;;;;;5050451;28;20326;-82
2023/03/25 08:06:48;;;;;;;4.10;1.90;;;10.00;99.90;;;;;;5043008;28;20729;-82
2023/03/25 08:09:15;;;;;;;2.97;1.77;;;10.00;99.90;;;;;;5041228;28;20603;-82
2023/03/25 08:11:43;;;;;;;3.90;1.80;;;10.30;99.90;;;;;;5042172;28;20295;-83
2023/03/25 08:14:10;;;;;;;3.00;1.73;;;10.50;99.90;;;;;;5040940;28;20203;-82
2023/03/25 08:16:37;;;;;;;2.77;1.67;;;10.60;99.90;;;;;;5033414;28;20626;-83
2023/03/25 08:19:04;;;;;;;3.00;1.77;;;10.80;99.90;;;;;;5045604;28;20263;-81
2023/03/25 08:21:30;;;;;;;3.77;1.97;;;11.00;99.90;;;;;;5036245;28;20291;-84
2023/03/25 08:24:01;;;;;;;2.47;1.67;;;11.10;99.90;;;;;;5042442;28;20211;-82
2023/03/25 08:26:28;;;;;;;2.77;1.40;;;10.90;99.90;;;;;;5038369;28;20252;-81
2023/03/25 08:28:58;;;;;;;2.63;1.80;;;10.60;99.90;;;;;;5047092;28;20207;-82
2023/03/25 08:31:29;;;;;;;2.60;1.60;;;10.40;99.90;;;;;;5038906;28;20710;-83
2023/03/25 08:33:56;;;;;;;2.90;1.47;;;10.30;99.90;;;;;;5040309;28;20204;-83
2023/03/25 08:36:24;;;;;;;2.10;1.40;;;10.10;99.90;;;;;;5038504;28;20257;-82
2023/03/25 08:38:51;;;;;;;3.13;1.97;;;9.90;99.90;;;;;;5039624;28;20204;-80
2023/03/25 08:41:18;;;;;;;5.93;1.60;;;9.80;99.90;;;;;;5033525;28;20199;-81
2023/03/25 08:43:45;;;;;;;1.87;1.73;;;9.80;99.90;;;;;;5042150;28;20218;-81
2023/03/25 08:46:13;;;;;;;2.53;1.50;;;9.70;99.90;;;;;;5043757;28;20225;-81
2023/03/25 08:48:40;;;;;;;3.53;1.67;;;9.80;99.90;;;;;;5037069;28;20302;-81
2023/03/25 08:51:08;;;;;;;2.00;1.80;;;9.90;99.90;;;;;;5042662;28;20211;-82
2023/03/25 08:53:34;;;;;;;4.87;2.77;;;9.90;99.90;;;;;;5044793;28;20223;-81
2023/03/25 08:56:02;;;;;;;3.10;1.73;;;10.00;99.90;;;;;;5045218;28;20761;-81
2023/03/25 08:58:29;;;;;;;3.87;2.03;;;10.10;99.90;;;;;;5036967;28;20204;-81
2023/03/25 09:00:57;;;;;;;3.23;1.47;;;10.10;99.90;;;;;;5043436;28;20287;-81
2023/03/25 09:03:26;;;;;;;2.57;1.70;;;10.20;99.90;;;;;;5036501;28;20219;-81
2023/03/25 09:05:54;;;;;;;2.77;1.63;;;10.20;99.90;;;;;;5036750;28;20250;-81
2023/03/25 09:08:21;;;;;;;3.40;1.43;;;10.30;99.90;;;;;;5039755;28;20577;-81
2023/03/25 09:10:48;;;;;;;2.77;1.47;;;10.30;99.90;;;;;;5040739;28;20208;-81
2023/03/25 09:13:15;;;;;;;5.10;1.80;;;10.20;99.90;;;;;;5034208;28;20655;-83
2023/03/25 09:15:42;;;;;;;2.27;1.70;;;10.20;99.90;;;;;;5046235;28;20207;-81
2023/03/25 09:18:09;;;;;;;3.63;1.57;;;10.10;99.90;;;;;;5034189;28;20644;-83
2023/03/25 09:20:38;;;;;;;3.23;1.70;;;10.10;99.90;;;;;;5040067;28;20203;-82
2023/03/25 09:23:04;;;;;;;3.87;1.70;;;9.90;99.90;;;;;;5038118;28;20294;-82
2023/03/25 09:25:31;;;;;;;2.27;1.43;;;10.00;99.90;;;;;;5042630;28;20227;-82
2023/03/25 09:27:58;;;;;;;2.57;1.40;;;10.10;99.90;;;;;;5034804;28;20207;-83
2023/03/25 09:30:25;;;;;;;3.60;1.47;;;10.20;99.90;;;;;;5037433;28;20232;-82
2023/03/25 09:32:52;;;;;;;2.23;1.13;;;10.40;99.90;;;;;;5047940;28;20607;-83
2023/03/25 09:35:18;;;;;;;2.77;1.33;;;10.40;99.90;;;;;;5037403;28;20720;-82
2023/03/25 09:37:47;;;;;;;2.10;1.43;;;10.60;99.90;;;;;;5038437;28;20203;-82
2023/03/25 09:40:16;;;;;;;3.37;1.90;;;10.50;99.90;;;;;;5046456;28;20294;-82
2023/03/25 09:42:58;;;;;;;2.43;2.23;;;10.50;99.90;;;;;;5037701;28;20268;-81
2023/03/25 09:45:32;;;;;;;5.33;1.83;;;10.70;99.90;;;;;;5039008;28;20216;-81
2023/03/25 09:48:04;;;;;;;4.17;1.90;;;11.10;99.90;;;;;;5036722;28;20291;-82
2023/03/25 09:50:33;;;;;;;1.97;1.67;;;11.10;99.90;;;;;;5046918;28;20682;-82
2023/03/25 09:53:06;;;;;;;4.67;1.60;;;11.20;99.90;;;;;;5042210;28;20218;-82
2023/03/25 09:55:38;;;;;;;1.77;1.50;;;11.30;99.90;;;;;;5047359;28;20196;-84
2023/03/25 09:58:23;;;;;;;3.27;1.40;;;11.30;99.90;;;;;;5048033;28;20191;-82
2023/03/25 10:00:55;;;;;;;4.40;1.50;;;11.30;99.90;;;;;;5040884;28;20552;-83
2023/03/25 10:03:28;;;;;;;1.43;1.33;;;11.20;99.90;;;;;;5036276;28;20216;-82
2023/03/25 10:06:06;;;;;;;2.83;1.10;;;10.90;99.90;;;;;;5041946;28;20224;-83
2023/03/25 10:08:50;;;;;;;2.20;1.10;;;10.90;99.90;;;;;;5039073;28;20204;-83
2023/03/25 10:11:25;;;;;;;3.43;1.43;;;10.90;99.90;;;;;;5050577;28;20258;-84
2023/03/25 10:13:58;;;;;;;2.87;1.10;;;10.80;99.90;;;;;;5033190;28;20219;-82
2023/03/25 10:16:35;;;;;;;2.67;1.57;;;10.80;99.90;;;;;;5039868;28;20639;-83
2023/03/25 10:19:22;;;;;;;1.57;1.40;;;10.80;99.90;;;;;;5038803;28;20591;-80
2023/03/25 10:21:57;;;;;;;2.03;1.33;;;10.60;99.90;;;;;;5040642;28;20224;-82
2023/03/25 10:24:31;;;;;;;2.57;1.37;;;10.70;99.90;;;;;;5036564;28;20302;-84
2023/03/25 10:27:01;;;;;;;2.47;1.60;;;10.80;99.90;;;;;;5038931;28;20663;-82
2023/03/25 10:29:33;;;;;;;1.63;1.50;;;10.90;99.90;;;;;;5041075;28;20196;-83
2023/03/25 10:32:06;;;;;;;7.10;2.13;;;11.20;99.90;;;;;;5035754;28;20227;-83
2023/03/25 10:34:38;;;;;;;2.70;1.70;;;11.30;99.90;;;;;;5038005;28;20281;-83
2023/03/25 10:37:11;;;;;;;6.47;1.90;;;11.60;99.90;;;;;;5040067;28;20194;-83
2023/03/25 10:39:44;;;;;;;3.00;2.40;;;11.60;99.90;;;;;;5030143;28;20216;-82
2023/03/25 10:42:20;;;;;;;2.20;1.97;;;12.40;99.90;;;;;;5044139;28;20265;-85
2023/03/25 10:44:47;;;;;;;4.87;2.30;;;12.80;99.90;;;;;;5043375;28;20241;-83
2023/03/25 10:47:18;;;;;;;5.57;2.63;;;12.90;99.90;;;;;;5030194;28;20310;-84
2023/03/25 10:49:46;;;;;;;3.80;2.00;;;13.40;99.90;;;;;;5040741;28;20736;-83
2023/03/25 10:52:14;;;;;;;3.57;2.40;;;13.00;99.90;;;;;;5041484;28;20306;-83
2023/03/25 10:54:47;;;;;;;4.93;1.83;;;12.40;99.90;;;;;;5038018;28;20299;-84
2023/03/25 10:57:20;;;;;;;3.43;2.00;;;12.40;99.90;;;;;;5034921;28;20196;-82
2023/03/25 10:59:57;;;;;;;4.93;2.20;;;12.40;99.90;;;;;;5043783;28;20231;-82
2023/03/25 11:02:26;;;;;;;5.67;2.77;;;11.90;99.90;;;;;;5038734;28;20219;-83
2023/03/25 11:04:58;;;;;;;2.70;1.60;;;11.70;99.90;;;;;;5043964;28;20584;-83
2023/03/25 11:07:31;;;;;;;3.30;2.30;;;11.80;99.90;;;;;;5047881;28;20532;-83
2023/03/25 11:10:16;;;;;;;2.83;1.30;;;12.00;99.90;;;;;;5042465;28;20227;-83
2023/03/25 11:12:45;;;;;;;4.07;2.00;;;12.50;99.90;;;;;;5039045;28;20256;-83
2023/03/25 11:15:15;;;;;;;2.00;1.77;;;12.90;99.90;;;;;;5047268;28;20203;-84
2023/03/25 11:17:43;;;;;;;3.47;1.90;;;13.30;99.90;;;;;;5043491;28;20259;-84
2023/03/25 11:20:20;;;;;;;2.83;1.80;;;13.30;99.90;;;;;;5037591;28;20211;-84
2023/03/25 11:22:50;;;;;;;3.07;2.30;;;13.50;99.90;;;;;;5047283;28;20258;-83
2023/03/25 11:25:23;;;;;;;2.33;1.90;;;13.50;99.90;;;;;;5039769;28;20207;-83
2023/03/25 11:27:55;;;;;;;3.73;1.80;;;13.30;99.90;;;;;;5042972;28;20564;-83
2023/03/25 11:30:25;;;;;;;5.40;2.00;;;13.10;99.90;;;;;;5042006;28;20208;-84
2023/03/25 11:33:02;;;;;;;7.37;2.17;;;12.70;99.90;;;;;;5039160;28;20227;-83
2023/03/25 11:35:30;;;;;;;5.60;2.13;;;12.80;99.90;;;;;;5036727;28;20196;-84
2023/03/25 11:37:59;;;;;;;2.63;1.87;;;12.70;99.90;;;;;;5042059;28;20214;-84
2023/03/25 11:40:30;;;;;;;4.03;1.80;;;12.70;99.90;;;;;;5048719;28;20222;-83
2023/03/25 11:42:59;;;;;;;2.53;1.80;;;12.60;99.90;;;;;;5030633;28;20252;-83
2023/03/25 11:45:32;;;;;;;4.27;1.93;;;12.40;99.90;;;;;;5036503;28;20290;-83
2023/03/25 11:48:01;;;;;;;2.40;1.90;;;12.60;99.90;;;;;;5046093;28;20199;-85
2023/03/25 11:50:30;;;;;;;4.33;2.00;;;12.70;99.90;;;;;;5038416;28;20254;-84
2023/03/25 11:53:00;;;;;;;4.03;2.13;;;12.60;99.90;;;;;;5042471;28;20233;-84
2023/03/25 11:55:30;;;;;;;3.90;2.17;;;12.60;99.90;;;;;;5038043;28;20200;-84
2023/03/25 11:58:00;;;;;;;5.43;2.00;;;12.70;99.90;;;;;;5036626;28;20203;-83
2023/03/25 12:00:32;;;;;;;4.53;2.17;;;13.00;99.90;;;;;;5037719;28;20199;-83
2023/03/25 12:03:01;;;;;;;3.77;1.87;;;12.70;99.90;;;;;;5037219;28;20319;-83
2023/03/25 12:05:28;;;;;;;3.87;1.80;;;12.60;99.90;;;;;;5041799;28;20200;-83
2023/03/25 12:08:05;;;;;;;4.63;2.30;;;12.50;99.90;;;;;;5035527;28;20579;-83
2023/03/25 12:10:47;;;;;;;5.40;1.73;;;12.40;99.90;;;;;;5038698;28;20287;-84
2023/03/25 12:13:19;;;;;;;6.10;2.03;;;12.30;99.90;;;;;;5040418;28;20235;-83
2023/03/25 12:15:54;;;;;;;4.23;1.70;;;12.60;99.90;;;;;;5037821;28;20203;-82
2023/03/25 12:18:46;;;;;;;5.23;2.37;;;13.20;99.90;;;;;;5043128;28;20202;-84
2023/03/25 12:21:22;;;;;;;2.90;1.97;;;12.80;99.90;;;;;;5035026;28;20270;-84
2023/03/25 12:24:04;;;;;;;3.60;2.20;;;12.50;99.90;;;;;;5036097;28;20749;-84
2023/03/25 12:26:40;;;;;;;4.87;2.10;;;12.60;99.90;;;;;;5037235;28;20223;-84
2023/03/25 12:29:23;;;;;;;6.33;2.23;;;12.50;99.90;;;;;;5034290;28;20209;-83
2023/03/25 12:32:02;;;;;;;4.43;2.10;;;12.50;99.90;;;;;;5034523;28;20251;-83
2023/03/25 12:34:39;;;;;;;5.77;2.20;;;12.40;99.90;;;;;;5038249;28;20198;-84
2023/03/25 12:37:19;;;;;;;5.37;2.60;;;12.20;99.90;;;;;;5030780;28;20209;-84
2023/03/25 12:40:03;;;;;;;7.20;3.80;;;12.20;99.90;;;;;;5029287;28;20199;-83
2023/03/25 12:42:40;;;;;;;5.43;2.47;;;12.10;99.90;;;;;;5035782;28;20760;-86
2023/03/25 12:45:28;;;;;;;5.60;2.40;;;11.80;99.90;;;;;;5034927;28;20290;-85
2023/03/25 12:47:58;;;;;;;4.50;2.17;;;10.90;99.90;;;;;;5030203;28;20200;-84
2023/03/25 12:50:55;;;;;;;4.70;2.40;;;10.70;99.90;;;;;;5034262;28;20207;-84
2023/03/25 12:53:35;;;;;;;4.00;2.30;;;10.80;99.90;;;;;;5030641;28;20227;-85
2023/03/25 12:56:13;;;;;;;5.07;2.60;;;11.00;99.90;;;;;;5036340;28;20222;-85
2023/03/25 12:58:54;;;;;;;7.47;3.20;;;11.50;99.90;;;;;;5041108;28;20206;-85
2023/03/25 13:01:33;;;;;;;5.63;2.90;;;11.70;99.90;;;;;;5029482;28;20564;-84
2023/03/25 13:04:19;;;;;;;5.93;2.27;;;11.70;99.90;;;;;;5037209;28;20214;-85
2023/03/25 13:06:57;;;;;;;4.30;2.80;;;11.60;99.90;;;;;;5044799;28;20289;-85
2023/03/25 13:09:27;;;;;;;5.60;2.40;;;11.60;99.90;;;;;;5034391;28;20212;-84
2023/03/25 13:11:57;;;;;;;3.33;2.20;;;11.60;99.90;;;;;;5033514;28;20226;-84